Time;durP1;ratioP1;P1;durP2;ratioP2;P2;SDS_P1;SDS_P2;PMS_P1;PMS_P2;Temp;Humidity;BMP_temperature;BMP_pressure;BME280_temperature;BME280_humidity;BME280_pressure;Samples;Min_cycle;Max_cycle;Signal;HPM_P1;HPM_P2
2022/11/16 00:00:21;;;;;;;8.60;4.10;;;;;;;12.93;47.60;100354.84;7392234;19;20499;-60
2022/11/16 00:02:50;;;;;;;8.93;3.70;;;;;;;12.90;47.87;100354.78;7392516;19;20006;-60
2022/11/16 00:05:19;;;;;;;9.48;4.10;;;;;;;12.87;47.85;100350.81;7394124;19;20550;-59
2022/11/16 00:07:45;;;;;;;8.38;3.70;;;;;;;12.93;47.65;100354.84;7388207;19;20078;-59
2022/11/16 00:10:11;;;;;;;7.97;3.63;;;;;;;12.93;47.54;100349.38;7391677;19;20346;-59
2022/11/16 00:12:38;;;;;;;8.90;4.03;;;;;;;12.88;47.74;100344.19;7398055;19;20002;-59
2022/11/16 00:15:05;;;;;;;8.27;4.00;;;;;;;12.83;48.25;100344.50;7395985;19;20079;-58
2022/11/16 00:17:32;;;;;;;8.40;4.18;;;;;;;12.90;47.93;100344.63;7396458;19;20100;-59
2022/11/16 00:19:58;;;;;;;9.50;4.53;;;;;;;12.92;47.95;100341.50;7398774;19;20003;-59
2022/11/16 00:22:23;;;;;;;8.70;4.10;;;;;;;12.96;47.70;100339.63;7398660;19;20006;-59
2022/11/16 00:24:49;;;;;;;9.25;4.00;;;;;;;12.99;47.92;100340.81;7396740;19;20005;-59
2022/11/16 00:27:15;;;;;;;8.13;3.70;;;;;;;12.89;48.01;100337.56;7397944;19;20337;-58
2022/11/16 00:29:40;;;;;;;10.98;4.32;;;;;;;12.88;47.89;100338.72;7398110;19;20006;-60
2022/11/16 00:32:06;;;;;;;8.68;3.70;;;;;;;12.89;47.84;100331.28;7398374;19;20337;-59
2022/11/16 00:34:31;;;;;;;8.65;4.05;;;;;;;12.91;47.77;100337.22;7397085;19;20009;-58
2022/11/16 00:36:57;;;;;;;7.18;3.13;;;;;;;12.89;47.92;100334.84;7395752;19;20002;-59
2022/11/16 00:39:23;;;;;;;7.70;3.90;;;;;;;12.91;47.79;100329.00;7397778;19;20026;-59
2022/11/16 00:41:49;;;;;;;8.95;4.28;;;;;;;12.90;47.80;100324.66;7397535;19;20006;-59
2022/11/16 00:44:15;;;;;;;7.63;3.78;;;;;;;12.94;47.84;100323.56;7396933;19;20010;-58
2022/11/16 00:46:41;;;;;;;8.80;4.25;;;;;;;12.91;47.75;100323.50;7394964;19;20007;-59
2022/11/16 00:49:07;;;;;;;8.82;4.30;;;;;;;12.90;47.79;100325.44;7398047;19;19998;-59
2022/11/16 00:51:34;;;;;;;11.20;3.97;;;;;;;12.87;47.78;100323.44;7398112;19;20340;-58
2022/11/16 00:54:00;;;;;;;8.93;4.10;;;;;;;12.92;47.82;100323.13;7397279;19;20002;-58
2022/11/16 00:56:26;;;;;;;10.35;4.13;;;;;;;12.83;48.35;100317.09;7395524;19;20087;-59
2022/11/16 00:58:51;;;;;;;8.27;4.00;;;;;;;12.79;48.47;100318.97;7397149;19;19999;-59
2022/11/16 01:01:17;;;;;;;9.55;3.78;;;;;;;12.86;48.27;100310.06;7396788;19;20057;-59
2022/11/16 01:03:43;;;;;;;7.57;3.58;;;;;;;12.85;48.63;100314.78;7395628;19;20002;-59
2022/11/16 01:06:13;;;;;;;8.57;4.32;;;;;;;12.85;48.74;100309.31;7397043;19;20489;-59
2022/11/16 01:08:40;;;;;;;7.90;3.80;;;;;;;12.84;48.62;100307.72;7397001;19;20009;-59
2022/11/16 01:13:51;;;;;;;9.38;3.90;;;;;;;12.87;48.50;100307.00;7396369;19;20082;-58
2022/11/16 01:16:19;;;;;;;10.18;4.15;;;;;;;12.84;48.71;100301.44;7391698;19;20006;-59
2022/11/16 01:18:49;;;;;;;9.07;3.90;;;;;;;12.84;48.71;100301.44;7396346;19;20006;-59
2022/11/16 01:21:16;;;;;;;8.63;3.85;;;;;;;12.85;48.54;100292.88;7394901;19;19999;-59
2022/11/16 01:23:42;;;;;;;7.07;3.40;;;;;;;12.85;48.56;100297.56;7393516;19;20010;-58
2022/11/16 01:26:07;;;;;;;7.85;3.33;;;;;;;12.84;48.55;100299.53;7396851;19;20009;-60
2022/11/16 01:28:33;;;;;;;7.93;3.70;;;;;;;12.85;48.38;100287.38;7396014;19;20035;-58
2022/11/16 01:30:59;;;;;;;9.65;3.85;;;;;;;12.87;48.34;100292.53;7396214;19;20105;-59
2022/11/16 01:33:25;;;;;;;8.20;3.33;;;;;;;12.83;48.37;100284.22;7394058;19;20003;-59
2022/11/16 01:35:50;;;;;;;9.75;3.45;;;;;;;12.86;48.41;100288.97;7393542;19;20075;-60
2022/11/16 01:38:16;;;;;;;8.30;3.78;;;;;;;12.85;48.02;100281.91;7395116;19;20006;-60
2022/11/16 01:40:42;;;;;;;9.18;3.70;;;;;;;12.84;48.16;100274.88;7394369;19;20066;-60
2022/11/16 01:43:23;;;;;;;9.55;3.95;;;;;;;12.84;48.06;100274.88;7396161;19;20040;-60
2022/11/16 01:45:55;;;;;;;10.13;3.55;;;;;;;12.83;48.04;100281.50;7393985;19;20003;-60
2022/11/16 01:48:26;;;;;;;8.00;3.63;;;;;;;12.86;47.80;100266.25;7395631;19;20018;-59
2022/11/16 01:50:54;;;;;;;6.75;3.42;;;;;;;12.90;47.50;100270.66;7393692;19;20003;-60
2022/11/16 01:53:20;;;;;;;6.68;3.47;;;;;;;12.92;47.60;100271.06;7395338;19;20005;-61
2022/11/16 01:55:48;;;;;;;6.82;3.33;;;;;;;12.93;47.49;100264.44;7393340;19;19994;-61
2022/11/16 01:58:18;;;;;;;5.68;3.25;;;;;;;12.94;47.60;100260.56;7390921;19;20002;-61
2022/11/16 02:00:44;;;;;;;6.78;3.20;;;;;;;12.95;47.33;100256.66;7393079;19;20478;-61
2022/11/16 02:03:10;;;;;;;8.75;3.78;;;;;;;12.90;47.51;100254.22;7394531;19;20005;-61
2022/11/16 02:05:57;;;;;;;7.00;3.30;;;;;;;12.87;47.20;100257.69;7391230;19;20467;-60
2022/11/16 02:11:37;;;;;;;7.45;3.42;;;;;;;12.89;47.12;100254.59;7394842;19;19995;-59
2022/11/16 02:14:27;;;;;;;8.07;3.28;;;;;;;12.84;47.26;100249.41;7394078;19;20006;-59
2022/11/16 02:16:57;;;;;;;8.07;3.50;;;;;;;12.81;47.34;100242.75;7392968;19;20018;-59
2022/11/16 02:19:43;;;;;;;8.48;3.35;;;;;;;12.78;47.00;100238.78;7394159;19;20025;-60
2022/11/16 02:22:31;;;;;;;10.23;3.83;;;;;;;12.81;47.08;100237.25;7394695;19;20066;-58
2022/11/16 02:25:07;;;;;;;7.55;3.33;;;;;;;12.84;46.95;100242.00;7393215;19;20082;-60
2022/11/16 02:27:54;;;;;;;7.15;3.38;;;;;;;12.83;46.90;100240.41;7393958;19;20325;-58
2022/11/16 02:30:21;;;;;;;8.57;3.67;;;;;;;12.85;46.89;100234.56;7394462;19;20511;-59
2022/11/16 02:32:55;;;;;;;7.47;4.00;;;;;;;12.83;46.83;100237.69;7393849;19;20364;-61
2022/11/16 02:35:30;;;;;;;7.30;3.53;;;;;;;12.81;46.76;100237.25;7392130;19;20014;-60
2022/11/16 02:38:01;;;;;;;7.28;3.47;;;;;;;12.82;46.68;100233.34;7391741;19;19991;-60
2022/11/16 02:40:30;;;;;;;8.68;3.55;;;;;;;12.77;47.01;100242.69;7393815;19;20016;-60
2022/11/16 02:43:06;;;;;;;8.70;3.70;;;;;;;12.70;46.54;100236.31;7393419;19;20005;-60
2022/11/16 02:45:36;;;;;;;9.68;3.72;;;;;;;12.81;46.67;100236.47;7392704;19;20006;-60
2022/11/16 02:48:08;;;;;;;9.48;3.78;;;;;;;12.75;46.72;100234.03;7392955;19;20003;-60
2022/11/16 02:50:35;;;;;;;8.02;3.90;;;;;;;12.84;46.53;100241.19;7393508;19;20332;-60
2022/11/16 02:53:02;;;;;;;8.10;3.92;;;;;;;12.83;46.71;100232.19;7393631;19;20052;-60
2022/11/16 02:55:31;;;;;;;9.43;3.95;;;;;;;12.76;46.77;100234.84;7389400;19;20489;-59
2022/11/16 02:58:07;;;;;;;9.07;3.92;;;;;;;12.75;46.53;100236.00;7391417;19;20019;-60
2022/11/16 03:00:42;;;;;;;9.05;3.72;;;;;;;12.82;46.63;100230.63;7393226;19;20014;-60
2022/11/16 03:03:25;;;;;;;8.98;3.90;;;;;;;12.78;46.58;100224.31;7393569;19;20007;-59
2022/11/16 03:06:00;;;;;;;8.82;4.03;;;;;;;12.10;48.13;100232.28;7391696;19;20006;-60
2022/11/16 03:08:59;;;;;;;9.23;4.03;;;;;;;11.93;48.91;100240.97;7392360;19;20002;-59
2022/11/16 03:14:48;;;;;;;8.82;4.38;;;;;;;12.62;47.31;100240.09;7392255;19;20459;-94
2022/11/16 03:17:23;;;;;;;10.60;3.97;;;;;;;12.60;47.40;100237.75;7383900;19;20030;-57
2022/11/16 03:19:55;;;;;;;9.18;4.22;;;;;;;12.61;47.77;100242.06;7391322;19;20003;-58
2022/11/16 03:22:33;;;;;;;8.85;4.32;;;;;;;12.64;47.72;100244.06;7390589;19;20037;-58
2022/11/16 03:24:59;;;;;;;10.07;4.65;;;;;;;12.60;48.05;100246.72;7391721;19;19998;-58
2022/11/16 03:27:47;;;;;;;9.50;4.45;;;;;;;12.51;48.58;100254.44;7391889;19;20352;-58
2022/11/16 03:30:19;;;;;;;10.15;5.47;;;;;;;12.47;48.87;100250.84;7390922;19;20001;-58
2022/11/16 03:33:16;;;;;;;9.63;4.35;;;;;;;12.44;49.58;100248.84;7392339;19;20003;-57
2022/11/16 03:35:51;;;;;;;9.18;4.90;;;;;;;12.43;49.41;100250.00;7389227;19;19994;-58
2022/11/16 03:38:19;;;;;;;12.13;5.63;;;;;;;12.46;49.17;100249.28;7388039;19;20019;-58
2022/11/16 03:40:46;;;;;;;10.73;5.10;;;;;;;12.39;49.72;100244.47;7390283;19;20109;-58
2022/11/16 03:43:13;;;;;;;11.75;5.25;;;;;;;12.37;49.53;100251.47;7391729;19;20002;-58
2022/11/16 03:45:39;;;;;;;11.20;5.00;;;;;;;12.27;50.10;100239.19;7389071;19;20019;-58
2022/11/16 03:48:06;;;;;;;11.73;5.40;;;;;;;12.30;49.91;100243.16;7390751;19;20020;-58
2022/11/16 03:50:32;;;;;;;12.10;5.38;;;;;;;12.26;50.27;100236.81;7389819;19;20017;-57
2022/11/16 03:52:57;;;;;;;10.55;5.72;;;;;;;12.13;50.44;100242.47;7392501;19;20007;-57
2022/11/16 03:55:23;;;;;;;12.75;6.60;;;;;;;12.11;50.74;100236.59;7390478;19;20013;-57
2022/11/16 03:57:49;;;;;;;12.80;6.53;;;;;;;12.18;50.76;100239.44;7389229;19;20007;-58
2022/11/16 04:00:15;;;;;;;11.43;6.03;;;;;;;12.16;50.66;100236.28;7391241;19;20316;-58
2022/11/16 04:02:40;;;;;;;13.68;6.82;;;;;;;12.14;50.71;100237.78;7390777;19;19998;-58
2022/11/16 04:24:34;;;;;;;13.32;6.75;;;;;;;11.81;51.18;100215.34;7388172;19;19998;-58
2022/11/16 04:29:48;;;;;;;12.48;6.78;;;;;;;11.92;50.82;100212.03;7390283;19;19999;-58
2022/11/16 04:37:48;;;;;;;13.48;6.75;;;;;;;11.89;50.89;100207.28;7388238;19;20002;-58
2022/11/16 04:40:15;;;;;;;14.07;7.68;;;;;;;11.81;51.24;100207.16;7391415;19;19999;-58
2022/11/16 04:42:40;;;;;;;13.55;6.85;;;;;;;11.83;51.25;100204.06;7390969;19;20002;-58
2022/11/16 04:47:52;;;;;;;14.80;7.85;;;;;;;11.63;51.58;100193.16;7387513;19;19998;-58
2022/11/16 04:50:19;;;;;;;15.07;7.90;;;;;;;11.66;51.66;100194.38;7390128;19;20007;-57
2022/11/16 04:52:45;;;;;;;14.07;7.80;;;;;;;11.61;51.93;100194.69;7391293;19;19995;-58
2022/11/16 04:55:11;;;;;;;13.88;7.45;;;;;;;11.61;51.81;100195.47;7387687;19;20015;-57
2022/11/16 04:57:37;;;;;;;15.63;8.20;;;;;;;11.56;51.70;100192.25;7389545;19;20002;-57
2022/11/16 05:00:05;;;;;;;16.45;8.32;;;;;;;11.54;51.69;100189.88;7397225;19;20002;-57
2022/11/16 05:02:31;;;;;;;16.27;9.00;;;;;;;11.62;51.43;100191.59;7397527;19;20002;-57
2022/11/16 05:04:57;;;;;;;15.45;8.52;;;;;;;11.60;51.58;100188.41;7395698;19;19991;-58
2022/11/16 05:07:22;;;;;;;15.07;8.55;;;;;;;11.53;51.62;100193.75;7394651;19;19999;-58
2022/11/16 05:09:48;;;;;;;15.40;8.73;;;;;;;11.57;51.58;100191.09;7396815;19;19998;-58
2022/11/16 05:12:18;;;;;;;15.80;8.85;;;;;;;11.46;51.98;100188.94;7397203;19;20002;-58
2022/11/16 05:14:44;;;;;;;15.85;8.95;;;;;;;11.53;51.71;100198.44;7395877;19;19999;-58
2022/11/16 05:17:10;;;;;;;18.63;9.45;;;;;;;11.60;51.69;100191.16;7395382;19;20011;-58
2022/11/16 05:22:20;;;;;;;15.15;8.75;;;;;;;11.47;51.43;100190.53;7396787;19;20036;-58
2022/11/16 05:24:45;;;;;;;19.13;10.05;;;;;;;11.40;52.02;100184.13;7395567;19;20050;-58
2022/11/16 05:27:13;;;;;;;17.25;10.00;;;;;;;11.40;52.24;100178.69;7395631;19;20359;-58
2022/11/16 05:29:39;;;;;;;18.02;10.35;;;;;;;11.30;51.82;100189.06;7396492;19;20030;-58
2022/11/16 05:32:06;;;;;;;17.88;10.23;;;;;;;11.37;52.05;100180.22;7394407;19;20474;-58
2022/11/16 05:34:33;;;;;;;19.25;11.15;;;;;;;11.35;51.86;100187.94;7396199;19;19999;-58
2022/11/16 05:36:59;;;;;;;20.70;11.25;;;;;;;11.31;52.02;100187.09;7394368;19;20091;-58
2022/11/16 05:39:25;;;;;;;20.30;10.80;;;;;;;11.32;52.08;100188.66;7395515;19;20366;-58
2022/11/16 05:41:51;;;;;;;18.25;11.05;;;;;;;11.32;51.88;100177.75;7396544;19;19994;-58
2022/11/16 05:44:17;;;;;;;19.80;11.35;;;;;;;11.21;51.92;100182.22;7394965;19;20018;-58
2022/11/16 05:46:43;;;;;;;18.15;11.20;;;;;;;11.26;51.93;100179.22;7394586;19;20320;-58
2022/11/16 05:49:10;;;;;;;22.30;12.05;;;;;;;11.29;52.07;100176.53;7395756;19;20002;-58
2022/11/16 05:51:38;;;;;;;21.15;11.48;;;;;;;11.20;52.00;100186.88;7396019;19;19999;-58
2022/11/16 05:54:05;;;;;;;21.95;11.52;;;;;;;11.24;52.16;100193.22;7395560;19;20006;-59
2022/11/16 05:56:32;;;;;;;20.55;11.07;;;;;;;11.24;51.85;100192.44;7390434;19;19998;-59
2022/11/16 05:58:58;;;;;;;20.88;11.88;;;;;;;11.29;52.16;100200.34;7394961;19;20009;-58
2022/11/16 06:01:24;;;;;;;20.55;11.93;;;;;;;11.33;51.70;100189.47;7395057;19;20016;-59
2022/11/16 06:03:50;;;;;;;22.70;11.88;;;;;;;11.30;51.90;100185.50;7394768;19;19999;-58
2022/11/16 06:06:16;;;;;;;21.92;12.43;;;;;;;11.27;51.81;100192.50;7393225;19;20074;-59
2022/11/16 06:08:41;;;;;;;22.00;12.63;;;;;;;11.26;51.84;100190.91;7393561;19;19991;-58
2022/11/16 06:11:09;;;;;;;21.50;11.73;;;;;;;11.28;51.79;100193.28;7394988;19;20136;-59
2022/11/16 06:13:35;;;;;;;20.30;11.90;;;;;;;11.26;51.68;100190.91;7394305;19;20498;-59
2022/11/16 06:16:02;;;;;;;21.00;12.27;;;;;;;11.22;51.83;100194.72;7390314;19;19999;-58
2022/11/16 06:18:28;;;;;;;21.77;13.00;;;;;;;11.21;52.11;100202.13;7396134;19;20030;-58
2022/11/16 06:20:54;;;;;;;21.08;12.82;;;;;;;11.26;51.60;100201.06;7392784;19;20003;-58
2022/11/16 06:23:20;;;;;;;21.85;12.25;;;;;;;11.31;51.46;100203.50;7393899;19;19999;-58
2022/11/16 06:25:46;;;;;;;22.50;13.20;;;;;;;11.28;51.42;100193.28;7390938;19;20003;-59
2022/11/16 06:28:12;;;;;;;24.10;12.85;;;;;;;11.35;51.31;100193.41;7391904;19;19999;-58
2022/11/16 06:30:39;;;;;;;22.70;13.38;;;;;;;11.25;51.45;100194.78;7392692;19;20003;-58
2022/11/16 06:33:05;;;;;;;23.95;12.43;;;;;;;11.25;51.56;100197.50;7393793;19;20009;-58
2022/11/16 06:35:31;;;;;;;22.58;12.88;;;;;;;11.29;51.39;100205.81;7393390;19;19995;-58
2022/11/16 06:37:57;;;;;;;20.65;11.68;;;;;;;11.33;51.15;100195.72;7392096;19;20006;-57
2022/11/16 06:40:23;;;;;;;19.95;11.90;;;;;;;11.25;51.41;100210.41;7393584;19;19998;-58
2022/11/16 06:42:49;;;;;;;21.25;12.65;;;;;;;11.25;51.31;100204.94;7393781;19;20002;-58
2022/11/16 06:45:15;;;;;;;21.10;12.02;;;;;;;11.24;51.45;100204.16;7391943;19;20497;-57
2022/11/16 06:47:41;;;;;;;24.75;12.73;;;;;;;11.28;51.17;100204.22;7390406;19;19997;-58
2022/11/16 06:50:07;;;;;;;21.85;12.55;;;;;;;11.27;51.15;100208.91;7393680;19;20022;-58
2022/11/16 06:52:33;;;;;;;23.58;13.55;;;;;;;11.27;51.15;100217.09;7393533;19;19995;-58
2022/11/16 06:54:58;;;;;;;23.17;13.55;;;;;;;11.32;50.88;100216.00;7393036;19;20025;-56
2022/11/16 06:57:24;;;;;;;20.05;11.75;;;;;;;11.27;51.35;100214.34;7389954;19;20006;-56
2022/11/16 06:59:50;;;;;;;24.00;12.32;;;;;;;11.33;51.17;100214.84;7392970;19;20003;-56
2022/11/16 07:02:15;;;;;;;22.38;12.25;;;;;;;11.24;51.03;100203.38;7393073;19;20032;-57
2022/11/16 07:04:41;;;;;;;23.38;12.43;;;;;;;11.29;51.19;100212.06;7393212;19;20015;-56
2022/11/16 07:07:07;;;;;;;21.55;12.15;;;;;;;11.31;51.21;100219.88;7390838;19;20007;-56
2022/11/16 07:09:32;;;;;;;23.10;11.93;;;;;;;11.34;50.93;100223.81;7391181;19;20069;-57
2022/11/16 07:11:58;;;;;;;22.55;13.00;;;;;;;11.29;51.29;100217.53;7390868;19;20613;-57
2022/11/16 07:14:24;;;;;;;20.80;12.00;;;;;;;11.33;50.98;100219.53;7391633;19;19999;-57
2022/11/16 07:16:49;;;;;;;23.10;12.80;;;;;;;11.27;51.21;100213.56;7390142;19;20490;-57
2022/11/16 07:19:15;;;;;;;22.63;12.52;;;;;;;11.25;51.14;100222.09;7390758;19;20027;-56
2022/11/16 07:21:40;;;;;;;21.17;12.32;;;;;;;11.35;51.04;100230.88;7390089;19;20002;-56
2022/11/16 07:24:06;;;;;;;21.35;12.10;;;;;;;11.39;50.78;100232.53;7390661;19;20393;-57
2022/11/16 07:26:33;;;;;;;20.83;12.05;;;;;;;11.23;51.26;100245.47;7389692;19;20376;-57
2022/11/16 07:28:59;;;;;;;21.95;12.60;;;;;;;11.14;51.33;100250.34;7391541;19;20022;-57
2022/11/16 07:31:24;;;;;;;22.45;13.15;;;;;;;11.19;51.36;100255.53;7394929;19;19995;-57
2022/11/16 07:33:51;;;;;;;22.90;13.45;;;;;;;11.21;51.26;100258.72;7392848;19;20532;-57
2022/11/16 07:36:16;;;;;;;39.65;19.88;;;;;;;11.20;51.34;100268.06;7388001;19;20068;-57
2022/11/16 07:38:42;;;;;;;32.00;16.20;;;;;;;11.14;51.32;100264.00;7392555;19;19999;-57
2022/11/16 07:41:10;;;;;;;22.73;14.10;;;;;;;11.17;51.53;100279.69;7391282;19;20002;-57
2022/11/16 07:43:36;;;;;;;22.33;13.52;;;;;;;11.00;52.03;100268.00;7392363;19;19999;-57
2022/11/16 07:46:13;;;;;;;23.92;13.88;;;;;;;10.93;51.99;100265.91;7387580;19;20011;-57
2022/11/16 07:48:41;;;;;;;24.98;13.75;;;;;;;10.98;51.96;100278.50;7395334;19;20003;-57
2022/11/16 07:51:10;;;;;;;25.83;13.95;;;;;;;11.00;52.16;100272.69;7392081;19;19998;-57
2022/11/16 07:53:36;;;;;;;28.08;15.65;;;;;;;11.04;52.12;100282.56;7390538;19;20351;-57
2022/11/16 07:56:03;;;;;;;33.47;19.40;;;;;;;11.01;52.12;100275.06;7389179;19;19998;-57
2022/11/16 07:58:32;;;;;;;29.30;16.52;;;;;;;10.98;52.39;100286.69;7389942;19;19999;-57
2022/11/16 08:01:13;;;;;;;30.15;17.30;;;;;;;10.98;52.65;100288.66;7391261;19;20006;-57
2022/11/16 08:03:40;;;;;;;24.60;15.07;;;;;;;10.95;52.43;100290.13;7390210;19;20024;-57
2022/11/16 08:06:30;;;;;;;25.10;14.35;;;;;;;11.02;52.33;100295.78;7388976;19;20031;-57
2022/11/16 08:08:56;;;;;;;25.40;14.85;;;;;;;11.00;52.32;100297.28;7389945;19;20007;-57
2022/11/16 08:11:22;;;;;;;23.13;13.82;;;;;;;11.03;52.20;100304.75;7390763;19;20012;-57
2022/11/16 08:13:48;;;;;;;27.58;15.32;;;;;;;10.98;52.49;100305.81;7389211;19;20002;-57
2022/11/16 08:16:19;;;;;;;24.27;14.57;;;;;;;11.08;52.18;100302.53;7388360;19;19999;-57
2022/11/16 08:18:45;;;;;;;24.80;14.18;;;;;;;11.03;52.61;100304.75;7390826;19;20022;-57
2022/11/16 08:21:13;;;;;;;24.98;14.10;;;;;;;10.88;52.64;100307.16;7390671;19;20007;-56
2022/11/16 08:23:39;;;;;;;25.08;14.43;;;;;;;10.96;52.69;100307.34;7390495;19;20495;-57
2022/11/16 08:26:13;;;;;;;22.80;13.52;;;;;;;11.01;52.42;100315.25;7388325;19;20174;-57
2022/11/16 08:28:39;;;;;;;25.55;15.50;;;;;;;10.88;52.57;100322.75;7390667;19;20070;-57
2022/11/16 08:31:14;;;;;;;26.58;14.85;;;;;;;10.76;53.05;100315.47;7389293;19;20355;-57
2022/11/16 08:33:40;;;;;;;24.13;14.13;;;;;;;10.83;52.59;100314.84;7396982;19;20569;-57
2022/11/16 08:36:08;;;;;;;24.55;13.80;;;;;;;10.79;52.67;100308.53;7395426;19;20010;-57
2022/11/16 08:38:34;;;;;;;24.83;14.25;;;;;;;10.90;52.69;100310.34;7397707;19;20018;-57
2022/11/16 08:40:59;;;;;;;25.23;14.60;;;;;;;10.87;52.53;100313.78;7394932;19;19998;-57
2022/11/16 08:43:25;;;;;;;25.98;14.70;;;;;;;10.84;52.63;100317.22;7398175;19;19999;-57
2022/11/16 08:45:54;;;;;;;26.20;14.65;;;;;;;10.73;53.28;100308.72;7395054;19;19998;-57
2022/11/16 08:48:20;;;;;;;26.30;15.05;;;;;;;10.76;52.91;100320.13;7397542;19;19998;-57
2022/11/16 08:50:46;;;;;;;25.40;14.23;;;;;;;10.84;52.59;100322.69;7397029;19;20310;-56
2022/11/16 08:53:14;;;;;;;24.35;14.65;;;;;;;10.77;52.83;100321.72;7395691;19;20005;-57
2022/11/16 08:55:45;;;;;;;23.02;14.27;;;;;;;10.70;53.16;100320.38;7395951;19;20017;-57
2022/11/16 08:58:11;;;;;;;22.00;13.55;;;;;;;10.78;52.69;100332.28;7393501;19;20014;-57
2022/11/16 09:00:37;;;;;;;23.23;13.05;;;;;;;10.83;52.68;100325.75;7397438;19;20683;-57
2022/11/16 09:03:02;;;;;;;23.85;13.85;;;;;;;10.73;53.04;100336.03;7396954;19;19998;-57
2022/11/16 09:05:28;;;;;;;24.15;13.88;;;;;;;10.87;52.66;100335.63;7395159;19;19994;-57
2022/11/16 09:07:54;;;;;;;24.13;13.38;;;;;;;10.84;52.85;100336.31;7395918;19;20001;-57
2022/11/16 09:10:21;;;;;;;23.30;13.85;;;;;;;10.76;52.88;100339.25;7397166;19;19995;-58
2022/11/16 09:12:48;;;;;;;21.50;13.13;;;;;;;10.72;53.05;100337.19;7395948;19;20021;-57
2022/11/16 09:15:14;;;;;;;23.25;13.55;;;;;;;10.72;52.97;100336.41;7393693;19;20070;-58
2022/11/16 09:17:40;;;;;;;22.00;13.80;;;;;;;10.65;52.83;100334.31;7391928;19;20036;-57
2022/11/16 09:20:06;;;;;;;23.70;13.57;;;;;;;10.65;52.97;100339.75;7396545;19;20030;-57
2022/11/16 09:22:32;;;;;;;23.90;14.05;;;;;;;10.70;52.84;100336.75;7395786;19;20008;-57
2022/11/16 09:24:58;;;;;;;22.45;13.32;;;;;;;10.69;52.85;100351.53;7392955;19;20264;-57
2022/11/16 09:27:23;;;;;;;24.38;13.48;;;;;;;10.65;52.69;100349.88;7393530;19;19991;-57
2022/11/16 09:29:49;;;;;;;25.23;14.88;;;;;;;10.66;52.61;100346.78;7393359;19;20022;-57
2022/11/16 09:32:15;;;;;;;27.95;16.73;;;;;;;10.65;52.81;100353.41;7395988;19;20454;-57
2022/11/16 09:34:41;;;;;;;28.95;15.98;;;;;;;10.69;52.57;100354.28;7394446;19;20003;-57
2022/11/16 09:37:07;;;;;;;25.27;15.20;;;;;;;10.62;52.84;100354.09;7393799;19;20019;-57
2022/11/16 09:39:33;;;;;;;25.35;15.40;;;;;;;10.56;52.74;100358.22;7395354;19;19999;-57
2022/11/16 09:42:49;;;;;;;27.10;14.40;;;;;;;10.57;53.14;100359.84;7393974;19;20001;-57
2022/11/16 09:45:21;;;;;;;23.48;14.38;;;;;;;10.64;52.70;100365.47;7390050;19;20003;-57
2022/11/16 09:47:51;;;;;;;21.45;13.70;;;;;;;10.55;52.73;100362.09;7392896;19;20002;-57
2022/11/16 09:50:41;;;;;;;24.55;14.15;;;;;;;10.45;52.90;100357.16;7394275;19;19994;-57
2022/11/16 09:53:15;;;;;;;24.90;14.05;;;;;;;10.54;52.73;100360.53;7393395;19;20447;-57
2022/11/16 09:55:47;;;;;;;22.42;13.88;;;;;;;10.50;52.85;100359.63;7393033;19;20459;-57
2022/11/16 09:58:42;;;;;;;22.38;13.30;;;;;;;10.37;52.84;100359.72;7391128;19;19995;-56
2022/11/16 10:01:23;;;;;;;23.30;14.50;;;;;;;10.52;52.82;100360.09;7391653;19;19994;-58
2022/11/16 10:03:53;;;;;;;25.77;15.45;;;;;;;10.42;52.72;100363.31;7395076;19;20018;-57
2022/11/16 10:06:22;;;;;;;22.15;14.13;;;;;;;10.54;52.50;100369.50;7391424;19;20066;-57
2022/11/16 10:08:50;;;;;;;26.60;14.63;;;;;;;10.48;52.49;100370.09;7394257;19;20054;-57
2022/11/16 10:11:40;;;;;;;25.10;14.60;;;;;;;10.54;52.45;100369.50;7394316;19;20003;-57
2022/11/16 10:14:34;;;;;;;24.88;14.70;;;;;;;10.54;52.40;100369.50;7395114;19;20002;-57
2022/11/16 10:17:03;;;;;;;24.27;14.30;;;;;;;10.51;52.38;100372.13;7391168;19;20006;-57
2022/11/16 10:19:42;;;;;;;23.80;14.27;;;;;;;10.50;52.36;100368.63;7394442;19;20011;-57
2022/11/16 10:22:11;;;;;;;23.10;14.00;;;;;;;10.59;52.21;100368.44;7394239;19;20002;-57
2022/11/16 10:24:52;;;;;;;24.27;14.23;;;;;;;10.49;52.36;100366.25;7394012;19;20006;-57
2022/11/16 10:27:26;;;;;;;23.20;14.05;;;;;;;10.54;52.30;100371.44;7392999;19;20586;-58
2022/11/16 10:29:58;;;;;;;22.38;13.25;;;;;;;10.44;52.72;100369.25;7394344;19;20069;-57
2022/11/16 10:32:30;;;;;;;23.58;13.98;;;;;;;10.45;52.59;100368.88;7391979;19;20003;-58
2022/11/16 10:35:05;;;;;;;21.63;13.55;;;;;;;10.42;52.72;100357.88;7391487;19;20352;-57
2022/11/16 10:37:35;;;;;;;21.92;13.77;;;;;;;10.45;52.54;100370.81;7391158;19;19999;-57
2022/11/16 10:40:19;;;;;;;22.10;13.50;;;;;;;10.45;52.51;100359.88;7393486;19;20002;-57
2022/11/16 10:42:53;;;;;;;20.90;13.65;;;;;;;10.31;52.84;100357.59;7392912;19;19998;-57
2022/11/16 10:45:27;;;;;;;23.63;13.80;;;;;;;10.31;52.77;100366.56;7392514;19;20025;-57
2022/11/16 10:47:58;;;;;;;21.65;13.32;;;;;;;10.39;52.59;100356.63;7392639;19;20276;-57
2022/11/16 10:50:45;;;;;;;21.55;13.50;;;;;;;10.47;52.72;100357.59;7394849;19;20054;-58
2022/11/16 10:53:25;;;;;;;26.27;14.85;;;;;;;10.42;52.89;100352.41;7390952;19;20478;-57
2022/11/16 10:56:10;;;;;;;21.70;13.35;;;;;;;10.49;52.71;100361.56;7390106;19;20013;-57
2022/11/16 10:58:53;;;;;;;22.25;13.65;;;;;;;10.40;52.77;100360.16;7392560;19;19999;-57
2022/11/16 11:01:37;;;;;;;24.23;14.93;;;;;;;10.31;52.88;100357.59;7393873;19;20022;-57
2022/11/16 11:04:13;;;;;;;23.73;13.73;;;;;;;10.27;53.20;100356.69;7390835;19;20002;-57
2022/11/16 11:06:39;;;;;;;23.55;14.50;;;;;;;10.29;52.91;100359.88;7391991;19;20325;-57
2022/11/16 11:09:24;;;;;;;22.02;14.43;;;;;;;10.30;52.92;100347.81;7390559;19;20015;-57
2022/11/16 11:15:09;;;;;;;23.75;13.65;;;;;;;10.34;52.56;100354.19;7390631;19;20393;-57
2022/11/16 11:17:40;;;;;;;23.15;14.32;;;;;;;10.44;52.45;100352.88;7389706;19;19994;-57
2022/11/16 11:20:06;;;;;;;21.85;13.65;;;;;;;10.38;52.61;100360.50;7391826;19;20074;-57
2022/11/16 11:22:40;;;;;;;21.80;13.80;;;;;;;10.26;52.85;100355.91;7392646;19;19995;-61
2022/11/16 11:25:22;;;;;;;20.55;13.23;;;;;;;10.36;52.87;100352.66;7388671;19;19994;-58
2022/11/16 11:27:49;;;;;;;24.40;14.20;;;;;;;10.45;52.55;100357.16;7392151;19;20254;-58
2022/11/16 11:30:20;;;;;;;23.13;13.73;;;;;;;10.35;52.81;100355.75;7390945;19;20060;-58
2022/11/16 11:32:47;;;;;;;24.70;14.88;;;;;;;10.45;52.36;100357.97;7389718;19;19990;-58
2022/11/16 11:35:25;;;;;;;22.73;14.35;;;;;;;10.32;52.73;100357.25;7389094;19;20013;-58
2022/11/16 11:38:02;;;;;;;20.88;13.20;;;;;;;10.31;52.59;100354.88;7388927;19;20038;-58
2022/11/16 11:40:28;;;;;;;22.75;13.95;;;;;;;10.26;52.84;100349.69;7390744;19;20006;-58
2022/11/16 11:42:58;;;;;;;22.90;13.25;;;;;;;10.27;52.71;100357.50;7391199;19;20007;-59
2022/11/16 11:45:29;;;;;;;22.92;14.20;;;;;;;10.35;52.33;100361.19;7389619;19;20010;-56
2022/11/16 11:48:24;;;;;;;23.95;13.82;;;;;;;10.28;52.48;100355.56;7390241;19;20002;-57
2022/11/16 11:50:54;;;;;;;21.85;14.35;;;;;;;10.31;52.91;100347.47;7391609;19;20007;-57
2022/11/16 11:53:42;;;;;;;22.95;13.88;;;;;;;10.33;52.41;100353.38;7391344;19;20007;-58
2022/11/16 11:56:11;;;;;;;22.58;13.50;;;;;;;10.41;52.56;100348.91;7389921;19;20018;-57
2022/11/16 11:58:38;;;;;;;22.90;14.05;;;;;;;10.36;52.52;100343.69;7388586;19;20003;-58
2022/11/16 12:01:42;;;;;;;24.30;14.18;;;;;;;10.36;52.74;100347.22;7391788;19;20033;-58
2022/11/16 12:04:28;;;;;;;20.75;12.77;;;;;;;10.17;52.96;100347.13;7390390;19;19995;-58
2022/11/16 12:07:09;;;;;;;21.67;13.30;;;;;;;10.31;52.65;100346.69;7395653;19;20019;-58
2022/11/16 12:09:53;;;;;;;20.85;13.20;;;;;;;10.32;52.84;100338.16;7405136;19;20015;-58
2022/11/16 12:12:22;;;;;;;21.63;12.90;;;;;;;10.41;52.61;100345.38;7405480;19;20030;-58